createdAt,value
2023-03-23T15:59:36.392Z,99634.72
2023-03-23T16:04:37.875Z,99623.88
2023-03-23T16:09:40.745Z,99617.44
2023-03-23T16:14:42.268Z,99621.34
2023-03-23T16:19:43.748Z,99624.44
2023-03-23T16:24:45.295Z,99626.06
2023-03-23T16:30:02.953Z,99616.78
2023-03-23T16:35:05.864Z,99616.78
2023-03-23T16:40:08.421Z,99630.03
2023-03-23T16:45:10.310Z,99636.19
2023-03-23T16:50:14.087Z,99634.94
2023-03-23T16:55:16.405Z,99632.41
2023-03-23T17:00:22.054Z,99632.94
2023-03-23T17:05:28.535Z,99625.59
2023-03-23T17:10:31.835Z,99618.88
2023-03-23T17:15:33.362Z,99631.50
2023-03-23T17:20:35.105Z,99643.00
2023-03-23T17:25:36.610Z,99640.47
2023-03-23T17:30:41.895Z,99645.19
2023-03-23T17:35:45.959Z,99646.00
2023-03-23T17:40:47.627Z,99659.09
2023-03-23T17:45:49.252Z,99653.06
2023-03-23T17:50:54.389Z,99653.75
2023-03-23T17:55:56.316Z,99644.47
2023-03-23T18:00:57.827Z,99639.53
2023-03-23T18:06:04.038Z,99658.06
2023-03-23T18:11:05.893Z,99649.88
2023-03-23T18:16:08.128Z,99645.19
2023-03-23T18:21:10.143Z,99654.09
2023-03-23T18:26:13.403Z,99650.84
2023-03-23T18:31:15.972Z,99653.28
2023-03-23T18:36:19.098Z,99667.97
2023-03-23T18:41:20.842Z,99662.97
2023-03-23T18:46:22.411Z,99651.22
2023-03-23T18:51:25.966Z,99654.50
2023-03-23T18:56:27.533Z,99646.66
2023-03-23T19:01:29.084Z,99654.97
2023-03-23T19:06:30.656Z,99647.34
2023-03-23T19:11:32.190Z,99638.44
2023-03-23T19:16:35.662Z,99633.28
2023-03-23T19:21:37.879Z,99627.00
2023-03-23T19:26:43.434Z,99624.34
2023-03-23T19:31:46.363Z,99616.13
2023-03-23T19:36:53.758Z,99609.13
2023-03-23T19:41:57.611Z,99609.84
2023-03-23T19:46:59.102Z,99612.16
2023-03-23T19:52:08.780Z,99603.66
2023-03-23T19:57:13.966Z,99608.34
2023-03-23T20:02:15.526Z,99602.38
2023-03-23T20:07:17.022Z,99610.56
2023-03-23T20:12:18.545Z,99605.63
2023-03-23T20:17:20.004Z,99593.25
2023-03-23T20:22:21.502Z,99591.69
2023-03-23T20:27:23.382Z,99584.75
2023-03-23T20:32:24.868Z,99588.19
2023-03-23T20:37:26.933Z,99578.53
2023-03-23T20:42:29.485Z,99574.25
2023-03-23T20:47:31.404Z,99561.66
2023-03-23T20:52:32.875Z,99562.97
2023-03-23T20:57:34.522Z,99561.94
2023-03-23T21:02:36.059Z,99568.69
2023-03-23T21:07:37.541Z,99567.66
2023-03-23T21:12:38.986Z,99561.34
2023-03-23T21:17:40.548Z,99562.53
2023-03-23T21:22:42.201Z,99560.38
2023-03-23T21:27:43.942Z,99546.84
2023-03-23T21:32:45.466Z,99543.56
2023-03-23T21:37:48.564Z,99541.28
2023-03-23T21:42:51.536Z,99524.47
2023-03-23T21:47:57.046Z,99526.94
2023-03-23T21:52:58.638Z,99506.44
2023-03-23T21:58:00.279Z,99500.13
2023-03-23T22:03:02.674Z,99500.06
2023-03-23T22:08:04.428Z,99475.06
2023-03-23T22:13:06.532Z,99467.28
2023-03-23T22:18:08.021Z,99455.53
2023-03-23T22:23:09.792Z,99447.88
2023-03-23T22:28:11.667Z,99438.19
2023-03-23T22:33:13.187Z,99436.97
2023-03-23T22:38:14.646Z,99421.28
2023-03-23T22:43:16.898Z,99421.59
2023-03-23T22:48:21.814Z,99410.00
2023-03-23T22:53:23.314Z,99402.94
2023-03-23T22:58:25.843Z,99395.97
2023-03-23T23:03:27.756Z,99400.50
2023-03-23T23:08:29.897Z,99386.72
2023-03-23T23:13:33.138Z,99376.31
2023-03-23T23:18:35.335Z,99369.09
2023-03-23T23:23:37.436Z,99353.06
2023-03-23T23:28:38.893Z,99334.34
2023-03-23T23:33:40.355Z,99327.25
2023-03-23T23:38:41.820Z,99327.44
2023-03-23T23:43:43.298Z,99308.38
2023-03-23T23:48:44.935Z,99310.22
2023-03-23T23:53:53.143Z,99280.66
2023-03-23T23:58:54.629Z,99270.22
